createdAt,value
2017-12-22T00:00:37.194Z,0
2017-12-22T00:01:17.681Z,0
2017-12-22T00:01:58.261Z,0
2017-12-22T00:02:38.749Z,0
2017-12-22T00:03:19.323Z,0
2017-12-22T00:03:59.854Z,0
2017-12-22T00:04:40.414Z,0
2017-12-22T00:05:20.960Z,0
2017-12-22T00:06:01.476Z,0
2017-12-22T00:06:41.928Z,0
2017-12-22T00:07:22.492Z,0
2017-12-22T00:08:02.973Z,0
2017-12-22T00:08:43.540Z,0
2017-12-22T00:09:24.083Z,0
2017-12-22T00:10:04.696Z,0
2017-12-22T00:10:45.246Z,0
2017-12-22T00:11:25.824Z,0
2017-12-22T00:12:06.401Z,0
2017-12-22T00:12:46.883Z,0
2017-12-22T00:13:27.522Z,0
2017-12-22T00:14:08.054Z,0
2017-12-22T00:14:48.600Z,0
2017-12-22T00:15:29.110Z,0
2017-12-22T00:16:09.646Z,0
2017-12-22T00:16:50.353Z,0
2017-12-22T00:17:30.917Z,0
2017-12-22T00:18:11.431Z,0
2017-12-22T00:18:51.980Z,0
2017-12-22T00:19:32.484Z,0
2017-12-22T00:20:12.986Z,0
2017-12-22T00:20:53.578Z,0
2017-12-22T00:21:34.114Z,0
2017-12-22T00:22:14.654Z,0
2017-12-22T00:22:55.154Z,0
2017-12-22T00:23:35.753Z,0
2017-12-22T00:24:16.283Z,0
2017-12-22T00:24:56.825Z,0
2017-12-22T00:25:37.280Z,0
2017-12-22T00:26:17.874Z,0
2017-12-22T00:26:58.406Z,0
2017-12-22T00:27:38.918Z,0
2017-12-22T00:28:19.440Z,0
2017-12-22T00:28:59.968Z,0
2017-12-22T00:29:40.519Z,0
2017-12-22T00:30:21.235Z,0
2017-12-22T00:31:01.723Z,0
2017-12-22T00:31:42.282Z,0
2017-12-22T00:32:22.804Z,0
2017-12-22T00:33:03.322Z,0
2017-12-22T00:33:43.895Z,0
2017-12-22T00:34:24.366Z,0
2017-12-22T00:35:04.932Z,0
2017-12-22T00:35:45.438Z,0
2017-12-22T00:36:25.986Z,0
2017-12-22T00:37:06.495Z,0
2017-12-22T00:37:47.030Z,0
2017-12-22T00:38:27.597Z,0
2017-12-22T00:39:08.091Z,0
2017-12-22T00:39:48.666Z,0
2017-12-22T00:40:29.193Z,0
2017-12-22T00:41:09.748Z,0
2017-12-22T00:41:50.272Z,0
2017-12-22T00:42:30.784Z,0
2017-12-22T00:43:11.282Z,0
2017-12-22T00:43:51.824Z,0
2017-12-22T00:44:32.322Z,0
2017-12-22T00:45:12.891Z,0
2017-12-22T00:45:53.433Z,0
2017-12-22T00:46:33.964Z,0
2017-12-22T00:47:14.530Z,0
2017-12-22T00:47:55.049Z,0
2017-12-22T00:48:35.558Z,0
2017-12-22T00:49:16.116Z,0
2017-12-22T00:49:56.696Z,0
2017-12-22T00:50:37.181Z,0
2017-12-22T00:51:17.727Z,0
2017-12-22T00:51:58.213Z,0
2017-12-22T00:52:38.730Z,0
2017-12-22T00:53:19.275Z,0
2017-12-22T00:53:59.854Z,0
2017-12-22T00:54:40.403Z,0
2017-12-22T00:55:20.959Z,0
2017-12-22T00:56:01.493Z,0
2017-12-22T00:56:42.307Z,0
2017-12-22T00:57:22.881Z,0
2017-12-22T00:58:03.434Z,0
2017-12-22T00:58:43.929Z,0
2017-12-22T00:59:24.507Z,0
2017-12-22T01:00:05.044Z,0
2017-12-22T01:00:45.579Z,0
2017-12-22T01:01:26.102Z,0
2017-12-22T01:02:06.642Z,0
2017-12-22T01:02:47.163Z,0
2017-12-22T01:03:27.632Z,0
2017-12-22T01:04:08.183Z,0
2017-12-22T01:04:48.687Z,0
2017-12-22T01:05:29.213Z,0
2017-12-22T01:06:09.757Z,0
2017-12-22T01:06:50.288Z,0
2017-12-22T01:07:30.822Z,0
2017-12-22T01:08:11.358Z,0
2017-12-22T01:08:51.880Z,0
2017-12-22T01:09:32.398Z,0
2017-12-22T01:10:13.004Z,0
2017-12-22T01:10:53.499Z,0
2017-12-22T01:11:34.031Z,0
2017-12-22T01:12:14.593Z,0
2017-12-22T01:12:55.113Z,0
2017-12-22T01:13:35.621Z,0
2017-12-22T01:14:16.172Z,0
2017-12-22T01:14:56.713Z,0
2017-12-22T01:15:37.249Z,0
2017-12-22T01:16:17.865Z,0
2017-12-22T01:16:58.350Z,0
2017-12-22T01:17:38.871Z,0
2017-12-22T01:18:19.360Z,0
2017-12-22T01:18:59.903Z,0
2017-12-22T01:19:40.453Z,0
2017-12-22T01:20:20.988Z,0
2017-12-22T01:21:01.484Z,0
2017-12-22T01:21:42.050Z,0
2017-12-22T01:22:22.570Z,0
2017-12-22T01:23:03.141Z,0
2017-12-22T01:23:43.712Z,0
2017-12-22T01:24:24.191Z,0
2017-12-22T01:25:04.686Z,0
2017-12-22T01:25:45.276Z,0
2017-12-22T01:26:25.745Z,0
2017-12-22T01:27:06.310Z,0
2017-12-22T01:27:46.809Z,0
2017-12-22T01:28:27.364Z,0
2017-12-22T01:29:07.850Z,0
2017-12-22T01:29:48.397Z,0
2017-12-22T01:30:28.920Z,0
2017-12-22T01:31:09.487Z,0
2017-12-22T01:31:50.024Z,0
2017-12-22T01:32:30.568Z,0
2017-12-22T01:33:11.147Z,0
2017-12-22T01:33:51.713Z,0
2017-12-22T01:34:32.231Z,0
2017-12-22T01:35:12.717Z,0
2017-12-22T01:35:53.284Z,0
2017-12-22T01:36:33.863Z,0
2017-12-22T01:37:14.365Z,0
2017-12-22T01:37:54.901Z,0
2017-12-22T01:38:35.521Z,0
2017-12-22T01:39:16.022Z,0
2017-12-22T01:39:56.559Z,0
2017-12-22T01:40:37.093Z,0
2017-12-22T01:41:17.640Z,0
2017-12-22T01:41:58.141Z,0
2017-12-22T01:42:38.740Z,0
2017-12-22T01:43:19.202Z,0
2017-12-22T01:43:59.785Z,0
2017-12-22T01:44:40.309Z,0
2017-12-22T01:45:20.909Z,0
2017-12-22T01:46:01.419Z,0
2017-12-22T01:46:42.016Z,0
2017-12-22T01:47:22.501Z,0
2017-12-22T01:48:03.041Z,0
2017-12-22T01:48:43.569Z,0
2017-12-22T01:49:24.125Z,0
2017-12-22T01:50:04.628Z,0
2017-12-22T01:50:45.137Z,0
2017-12-22T01:51:25.764Z,0
2017-12-22T01:52:06.240Z,0
2017-12-22T01:52:46.765Z,0
2017-12-22T01:53:27.330Z,0
2017-12-22T01:54:07.849Z,0
2017-12-22T01:54:48.359Z,0
2017-12-22T01:55:28.954Z,0
2017-12-22T01:56:09.500Z,0
2017-12-22T01:56:50.016Z,0
2017-12-22T01:57:30.569Z,0
2017-12-22T01:58:11.104Z,0
2017-12-22T01:58:51.620Z,0
2017-12-22T01:59:32.125Z,0
2017-12-22T02:00:12.679Z,0
2017-12-22T02:00:53.230Z,0
2017-12-22T02:01:33.773Z,0
2017-12-22T02:02:14.383Z,0
2017-12-22T02:02:54.880Z,0
2017-12-22T02:03:35.432Z,0
2017-12-22T02:04:15.946Z,0
2017-12-22T02:04:56.519Z,0
2017-12-22T02:05:36.990Z,0
2017-12-22T02:06:17.551Z,0
2017-12-22T02:06:58.061Z,0
2017-12-22T02:07:38.636Z,0
2017-12-22T02:08:19.135Z,0
2017-12-22T02:08:59.657Z,0
2017-12-22T02:09:40.193Z,0
2017-12-22T02:10:20.884Z,0
2017-12-22T02:11:01.361Z,0
2017-12-22T02:11:41.899Z,0
2017-12-22T02:12:22.452Z,0
2017-12-22T02:13:02.990Z,0
2017-12-22T02:13:43.503Z,0
2017-12-22T02:14:24.080Z,0
2017-12-22T02:15:04.580Z,0
2017-12-22T02:15:45.095Z,0
2017-12-22T02:16:25.644Z,0
2017-12-22T02:17:06.154Z,0
2017-12-22T02:17:46.685Z,0
2017-12-22T02:18:27.245Z,0
2017-12-22T02:19:07.805Z,0
2017-12-22T02:19:48.275Z,0
2017-12-22T02:20:28.810Z,0
2017-12-22T02:21:09.319Z,0
2017-12-22T02:21:49.868Z,0
2017-12-22T02:22:30.396Z,0
2017-12-22T02:23:10.939Z,0
2017-12-22T02:23:51.472Z,0
2017-12-22T02:24:31.980Z,0
2017-12-22T02:25:12.528Z,0
2017-12-22T02:25:53.062Z,0
2017-12-22T02:26:33.589Z,0
2017-12-22T02:27:14.121Z,0
2017-12-22T02:27:54.714Z,0
2017-12-22T02:28:35.209Z,0
2017-12-22T02:29:15.749Z,0
2017-12-22T02:29:56.303Z,0
2017-12-22T02:30:36.858Z,0
2017-12-22T02:31:17.365Z,0
2017-12-22T02:31:57.888Z,0
2017-12-22T02:32:38.484Z,0
2017-12-22T02:33:18.989Z,0
2017-12-22T02:33:59.513Z,0
2017-12-22T02:34:39.992Z,0
2017-12-22T02:35:20.585Z,0
2017-12-22T02:36:01.103Z,0
2017-12-22T02:36:41.644Z,0
2017-12-22T02:37:22.135Z,0
2017-12-22T02:38:02.736Z,0
2017-12-22T02:38:43.253Z,0
2017-12-22T02:39:23.781Z,0
2017-12-22T02:40:04.350Z,0
2017-12-22T02:40:44.986Z,0
2017-12-22T02:41:25.522Z,0
2017-12-22T02:42:06.080Z,0
2017-12-22T02:42:46.612Z,0
2017-12-22T02:43:27.110Z,0
2017-12-22T02:44:08.297Z,0
2017-12-22T02:44:48.782Z,0
2017-12-22T02:45:29.364Z,0
2017-12-22T02:46:09.911Z,0
2017-12-22T02:46:50.492Z,0
2017-12-22T02:47:31.002Z,0
2017-12-22T02:48:11.570Z,0
2017-12-22T02:48:52.115Z,0
2017-12-22T02:49:32.591Z,0
2017-12-22T02:50:13.119Z,0
2017-12-22T02:50:53.775Z,0
2017-12-22T02:51:34.334Z,0
2017-12-22T02:52:14.882Z,0
2017-12-22T02:52:55.413Z,0
2017-12-22T02:53:35.929Z,0
2017-12-22T02:54:16.501Z,0
2017-12-22T02:54:57.105Z,0
2017-12-22T02:55:37.707Z,0
2017-12-22T02:56:18.300Z,0
2017-12-22T02:56:58.811Z,0
2017-12-22T02:57:39.331Z,0
2017-12-22T02:58:19.885Z,0
2017-12-22T02:59:00.376Z,0
2017-12-22T02:59:40.944Z,0
2017-12-22T03:00:21.466Z,0
2017-12-22T03:01:01.977Z,0
2017-12-22T03:01:42.579Z,0
2017-12-22T03:02:23.053Z,0
2017-12-22T03:03:03.583Z,0
2017-12-22T03:03:44.122Z,0
2017-12-22T03:04:24.656Z,0
2017-12-22T03:05:05.180Z,0
2017-12-22T03:05:45.698Z,0
2017-12-22T03:06:26.210Z,0
2017-12-22T03:07:06.762Z,0
2017-12-22T03:07:47.251Z,0
2017-12-22T03:08:27.804Z,0
2017-12-22T03:09:08.318Z,0
2017-12-22T03:09:48.847Z,0
2017-12-22T03:10:29.397Z,0
2017-12-22T03:11:09.954Z,0
2017-12-22T03:11:50.520Z,0
2017-12-22T03:12:31.005Z,0
2017-12-22T03:13:11.565Z,0
2017-12-22T03:13:52.044Z,0
2017-12-22T03:14:32.587Z,0
2017-12-22T03:15:13.099Z,0
2017-12-22T03:15:53.609Z,0
2017-12-22T03:16:34.128Z,0
2017-12-22T03:17:14.717Z,0
2017-12-22T03:17:55.228Z,0
2017-12-22T03:18:35.816Z,0
2017-12-22T03:19:16.285Z,0
2017-12-22T03:19:56.884Z,0
2017-12-22T03:20:37.501Z,0
2017-12-22T03:21:17.985Z,0
2017-12-22T03:21:58.546Z,0
2017-12-22T03:22:39.193Z,0
2017-12-22T03:23:19.714Z,0
2017-12-22T03:24:00.255Z,0
2017-12-22T03:24:40.760Z,0
2017-12-22T03:25:21.289Z,0
2017-12-22T03:26:02.699Z,0
2017-12-22T03:26:43.260Z,0
2017-12-22T03:27:23.833Z,0
2017-12-22T03:28:04.315Z,0
2017-12-22T03:28:44.894Z,0
2017-12-22T03:29:25.431Z,0
2017-12-22T03:30:05.943Z,0
2017-12-22T03:30:46.631Z,0
2017-12-22T03:31:27.184Z,0
2017-12-22T03:32:07.726Z,0
2017-12-22T03:32:48.217Z,0
2017-12-22T03:33:28.834Z,0
2017-12-22T03:34:09.341Z,0
2017-12-22T03:34:49.853Z,0
2017-12-22T03:35:30.406Z,0
2017-12-22T03:36:10.966Z,0
2017-12-22T03:36:51.498Z,0
2017-12-22T03:37:32.036Z,0
2017-12-22T03:38:12.542Z,0
2017-12-22T03:38:53.043Z,0
2017-12-22T03:39:33.547Z,0
2017-12-22T03:40:14.148Z,0
2017-12-22T03:40:54.772Z,0
2017-12-22T03:41:35.318Z,0
2017-12-22T03:42:15.888Z,0
2017-12-22T03:42:56.886Z,0
2017-12-22T03:43:36.897Z,0
2017-12-22T03:44:17.390Z,0
2017-12-22T03:44:58.116Z,0
2017-12-22T03:45:38.687Z,0
2017-12-22T03:46:19.220Z,0
2017-12-22T03:46:59.771Z,0
2017-12-22T03:47:40.298Z,0
2017-12-22T03:48:20.802Z,0
2017-12-22T03:49:01.370Z,0
2017-12-22T03:49:41.825Z,0
2017-12-22T03:50:22.411Z,0
2017-12-22T03:51:02.958Z,0
2017-12-22T03:51:43.513Z,0
2017-12-22T03:52:24.043Z,0
2017-12-22T03:53:04.518Z,0
2017-12-22T03:53:45.095Z,0
2017-12-22T03:54:25.677Z,0
2017-12-22T03:55:06.233Z,0
2017-12-22T03:55:46.788Z,0
2017-12-22T03:56:27.300Z,0
2017-12-22T03:57:07.825Z,0
2017-12-22T03:57:48.399Z,0
2017-12-22T03:58:28.932Z,0
2017-12-22T03:59:09.484Z,0
2017-12-22T03:59:50.008Z,0
2017-12-22T04:00:30.511Z,0
2017-12-22T04:01:11.060Z,0
2017-12-22T04:01:51.582Z,0
2017-12-22T04:02:32.129Z,0
2017-12-22T04:03:12.615Z,0
2017-12-22T04:03:53.161Z,0
2017-12-22T04:04:33.688Z,0
2017-12-22T04:05:14.253Z,0
2017-12-22T04:05:54.768Z,0
2017-12-22T04:06:35.300Z,0
2017-12-22T04:07:15.827Z,0
2017-12-22T04:07:56.310Z,0
2017-12-22T04:08:36.888Z,0
2017-12-22T04:09:17.364Z,0
2017-12-22T04:09:57.915Z,0
2017-12-22T04:10:38.462Z,0
2017-12-22T04:11:19.013Z,0
2017-12-22T04:11:59.536Z,0
2017-12-22T04:12:40.130Z,0
2017-12-22T04:13:20.595Z,0
2017-12-22T04:14:01.295Z,0
2017-12-22T04:14:41.763Z,0
2017-12-22T04:15:22.253Z,0
2017-12-22T04:16:02.817Z,0
2017-12-22T04:16:43.334Z,0
2017-12-22T04:17:23.908Z,0
2017-12-22T04:18:04.431Z,0
2017-12-22T04:18:45.034Z,0
2017-12-22T04:19:25.571Z,0
2017-12-22T04:20:06.130Z,0
2017-12-22T04:20:46.621Z,0
2017-12-22T04:21:27.201Z,0
2017-12-22T04:22:07.763Z,0
2017-12-22T04:22:48.237Z,0
2017-12-22T04:23:28.797Z,0
2017-12-22T04:24:09.266Z,0
2017-12-22T04:24:49.818Z,0
2017-12-22T04:25:30.388Z,0
2017-12-22T04:26:10.925Z,0
2017-12-22T04:26:51.477Z,0
2017-12-22T04:27:31.992Z,0
2017-12-22T04:28:12.559Z,0
2017-12-22T04:28:53.094Z,0
2017-12-22T04:29:33.609Z,0
2017-12-22T04:30:14.180Z,0
2017-12-22T04:30:54.637Z,0
2017-12-22T04:31:35.174Z,0
2017-12-22T04:32:15.692Z,0
2017-12-22T04:32:56.213Z,0
2017-12-22T04:33:37.410Z,0
2017-12-22T04:34:17.929Z,0
2017-12-22T04:34:58.484Z,0
2017-12-22T04:35:39.006Z,0
2017-12-22T04:36:19.521Z,0
2017-12-22T04:37:00.058Z,0
2017-12-22T04:37:40.623Z,0
2017-12-22T04:38:21.158Z,0
2017-12-22T04:39:01.637Z,0
2017-12-22T04:39:42.233Z,0
2017-12-22T04:40:22.736Z,0
2017-12-22T04:41:03.285Z,0
2017-12-22T04:41:43.779Z,0
2017-12-22T04:42:24.339Z,0
2017-12-22T04:43:04.850Z,0
2017-12-22T04:43:45.388Z,0
2017-12-22T04:44:25.891Z,0
2017-12-22T04:45:06.413Z,0
2017-12-22T04:45:46.961Z,0
2017-12-22T04:46:27.498Z,0
2017-12-22T04:47:08.061Z,0
2017-12-22T04:47:48.567Z,0
2017-12-22T04:48:29.098Z,0
2017-12-22T04:49:09.652Z,0
2017-12-22T04:49:50.185Z,0
2017-12-22T04:50:30.699Z,0
2017-12-22T04:51:11.260Z,0
2017-12-22T04:51:51.757Z,0
2017-12-22T04:52:32.284Z,0
2017-12-22T04:53:12.820Z,0
2017-12-22T04:53:53.305Z,0
2017-12-22T04:54:33.915Z,0
2017-12-22T04:55:14.501Z,0
2017-12-22T04:55:55.012Z,0
2017-12-22T04:56:35.584Z,0
2017-12-22T04:57:16.135Z,0
2017-12-22T04:57:56.599Z,0
2017-12-22T04:58:37.204Z,0
2017-12-22T04:59:17.729Z,0
2017-12-22T04:59:58.258Z,0
2017-12-22T05:00:38.826Z,0
2017-12-22T05:01:19.352Z,0
2017-12-22T05:01:59.906Z,0
2017-12-22T05:02:40.404Z,0
2017-12-22T05:03:20.926Z,0
2017-12-22T05:04:01.458Z,0
2017-12-22T05:04:41.995Z,0
2017-12-22T05:05:22.517Z,0
2017-12-22T05:06:03.056Z,0
2017-12-22T05:06:43.670Z,0
2017-12-22T05:07:24.169Z,0
2017-12-22T05:08:04.757Z,0
2017-12-22T05:08:45.286Z,0
2017-12-22T05:09:26.410Z,0
2017-12-22T05:10:06.271Z,0
2017-12-22T05:10:46.767Z,0
2017-12-22T05:11:27.355Z,0
2017-12-22T05:12:07.850Z,0
2017-12-22T05:12:48.365Z,0
2017-12-22T05:13:28.890Z,0
2017-12-22T05:14:09.465Z,0
2017-12-22T05:14:50.008Z,0
2017-12-22T05:15:30.524Z,0
2017-12-22T05:16:11.051Z,0
2017-12-22T05:16:51.583Z,0
2017-12-22T05:17:32.064Z,0
2017-12-22T05:18:12.618Z,0
2017-12-22T05:18:53.239Z,0
2017-12-22T05:19:33.710Z,0
2017-12-22T05:20:14.308Z,0
2017-12-22T05:20:54.810Z,0
2017-12-22T05:21:35.343Z,0
2017-12-22T05:22:15.857Z,0
2017-12-22T05:22:56.559Z,0
2017-12-22T05:23:37.030Z,0
2017-12-22T05:24:17.587Z,0
2017-12-22T05:24:58.125Z,0
2017-12-22T05:25:38.717Z,0
2017-12-22T05:26:19.282Z,0
2017-12-22T05:26:59.772Z,0
2017-12-22T05:27:40.336Z,0
2017-12-22T05:28:20.887Z,0
2017-12-22T05:29:01.398Z,0
2017-12-22T05:29:41.927Z,0
2017-12-22T05:30:22.462Z,0
2017-12-22T05:31:03.010Z,0
2017-12-22T05:31:43.575Z,0
2017-12-22T05:32:24.067Z,0
2017-12-22T05:33:04.595Z,0
2017-12-22T05:33:45.163Z,0
2017-12-22T05:34:25.679Z,0
2017-12-22T05:35:06.223Z,0
2017-12-22T05:35:46.764Z,0
2017-12-22T05:36:27.326Z,0
2017-12-22T05:37:07.906Z,0
2017-12-22T05:37:48.410Z,0
2017-12-22T05:38:28.912Z,0
2017-12-22T05:39:09.414Z,0
2017-12-22T05:39:49.974Z,0
2017-12-22T05:40:30.494Z,0
2017-12-22T05:41:11.004Z,0
2017-12-22T05:41:51.574Z,0
2017-12-22T05:42:32.102Z,0
2017-12-22T05:43:12.615Z,0
2017-12-22T05:43:53.159Z,0
2017-12-22T05:44:33.661Z,0
2017-12-22T05:45:14.220Z,0
2017-12-22T05:45:54.765Z,0
2017-12-22T05:46:35.299Z,0
2017-12-22T05:47:15.838Z,0
2017-12-22T05:47:56.406Z,0
2017-12-22T05:48:37.011Z,0
2017-12-22T05:49:17.533Z,0
2017-12-22T05:49:58.049Z,0
2017-12-22T05:50:38.585Z,0
2017-12-22T05:51:19.188Z,0
2017-12-22T05:51:59.707Z,0
2017-12-22T05:52:40.211Z,0
2017-12-22T05:53:20.740Z,0
2017-12-22T05:54:01.293Z,0
2017-12-22T05:54:41.829Z,0
2017-12-22T05:55:22.376Z,0
2017-12-22T05:56:02.956Z,0
2017-12-22T05:56:43.454Z,0
2017-12-22T05:57:24.006Z,0
2017-12-22T05:58:04.523Z,0
2017-12-22T05:58:45.023Z,0
2017-12-22T05:59:25.603Z,0
2017-12-22T06:00:06.117Z,0
2017-12-22T06:00:46.634Z,0
2017-12-22T06:01:27.178Z,0
2017-12-22T06:02:07.711Z,0
2017-12-22T06:02:48.213Z,0
2017-12-22T06:03:28.839Z,0
2017-12-22T06:04:09.403Z,0
2017-12-22T06:04:49.987Z,0
2017-12-22T06:05:30.515Z,0
2017-12-22T06:06:11.065Z,0
2017-12-22T06:06:51.570Z,0
2017-12-22T06:07:32.111Z,0
2017-12-22T06:08:12.661Z,0
2017-12-22T06:08:53.200Z,0
2017-12-22T06:09:33.673Z,0
2017-12-22T06:10:14.232Z,0
2017-12-22T06:10:54.790Z,0
2017-12-22T06:11:35.316Z,0
2017-12-22T06:12:15.861Z,0
2017-12-22T06:12:56.448Z,0
2017-12-22T06:13:37.043Z,0
2017-12-22T06:14:17.964Z,0
2017-12-22T06:14:58.236Z,0
2017-12-22T06:15:38.790Z,0
2017-12-22T06:16:19.323Z,0
2017-12-22T06:16:59.933Z,0
2017-12-22T06:17:40.394Z,0
2017-12-22T06:18:20.881Z,0
2017-12-22T06:19:01.445Z,0
2017-12-22T06:19:42.023Z,0
2017-12-22T06:20:22.630Z,0
2017-12-22T06:21:03.108Z,0
2017-12-22T06:21:43.730Z,0
2017-12-22T06:22:24.161Z,0
2017-12-22T06:23:04.667Z,0
2017-12-22T06:23:45.216Z,0
2017-12-22T06:24:25.770Z,0
2017-12-22T06:25:06.263Z,0
2017-12-22T06:25:46.833Z,0
2017-12-22T06:26:27.644Z,0
2017-12-22T06:27:08.092Z,0
2017-12-22T06:27:48.596Z,0
2017-12-22T06:28:29.097Z,0
2017-12-22T06:29:09.712Z,0
2017-12-22T06:29:50.155Z,0
2017-12-22T06:30:30.764Z,0
2017-12-22T06:31:11.314Z,0
2017-12-22T06:31:51.873Z,0
2017-12-22T06:32:32.382Z,0
2017-12-22T06:33:13.078Z,0
2017-12-22T06:33:53.609Z,0
2017-12-22T06:34:34.476Z,0
2017-12-22T06:35:16.235Z,0
2017-12-22T06:35:56.881Z,0
2017-12-22T06:36:37.421Z,0
2017-12-22T06:37:17.954Z,0
2017-12-22T06:37:58.562Z,0
2017-12-22T06:38:39.080Z,0
2017-12-22T06:39:19.599Z,0
2017-12-22T06:40:00.137Z,0
2017-12-22T06:40:40.683Z,0
2017-12-22T06:41:21.789Z,0
2017-12-22T06:42:02.207Z,0
2017-12-22T06:42:42.960Z,0
2017-12-22T06:43:23.498Z,0
2017-12-22T06:44:04.038Z,0
2017-12-22T06:44:44.523Z,0
2017-12-22T06:45:25.075Z,0
2017-12-22T06:46:05.634Z,0
2017-12-22T06:46:46.143Z,0
2017-12-22T06:47:29.462Z,0
2017-12-22T06:48:22.536Z,0
2017-12-22T06:49:03.072Z,0
2017-12-22T06:49:43.604Z,0
2017-12-22T06:50:24.165Z,0
2017-12-22T06:51:04.692Z,0
2017-12-22T06:51:45.250Z,0
2017-12-22T06:52:25.757Z,0
2017-12-22T06:53:06.309Z,0
2017-12-22T06:53:46.822Z,0
2017-12-22T06:54:27.409Z,0
2017-12-22T06:55:07.920Z,0
2017-12-22T06:55:48.494Z,0
2017-12-22T06:56:29.043Z,0
2017-12-22T06:57:09.592Z,0
2017-12-22T06:57:50.139Z,0
2017-12-22T06:58:30.660Z,0
2017-12-22T06:59:11.219Z,0
2017-12-22T06:59:51.750Z,0
2017-12-22T07:00:32.276Z,0
2017-12-22T07:01:12.802Z,4
2017-12-22T07:01:53.367Z,4
2017-12-22T07:02:33.947Z,4
2017-12-22T07:03:14.494Z,0
2017-12-22T07:03:54.992Z,0
2017-12-22T07:04:35.561Z,0
2017-12-22T07:05:16.076Z,4
2017-12-22T07:05:56.568Z,4
2017-12-22T07:06:37.181Z,4
2017-12-22T07:07:17.686Z,4
2017-12-22T07:07:58.169Z,8
2017-12-22T07:08:38.707Z,8
2017-12-22T07:09:19.262Z,4
2017-12-22T07:09:59.839Z,4
2017-12-22T07:10:40.350Z,8
2017-12-22T07:11:20.860Z,8
2017-12-22T07:12:01.473Z,8
2017-12-22T07:12:42.033Z,8
2017-12-22T07:13:22.619Z,8
2017-12-22T07:14:03.115Z,12
2017-12-22T07:14:43.659Z,8
2017-12-22T07:15:24.232Z,12
2017-12-22T07:16:04.748Z,12
2017-12-22T07:16:45.260Z,16
2017-12-22T07:17:25.833Z,12
2017-12-22T07:18:06.333Z,16
2017-12-22T07:18:46.804Z,16
2017-12-22T07:19:27.382Z,16
2017-12-22T07:20:07.968Z,20
2017-12-22T07:20:48.506Z,20
2017-12-22T07:21:29.054Z,20
2017-12-22T07:22:09.629Z,24
2017-12-22T07:22:50.129Z,24
2017-12-22T07:23:30.669Z,28
2017-12-22T07:24:11.206Z,28
2017-12-22T07:24:51.794Z,28
2017-12-22T07:25:32.296Z,28
2017-12-22T07:26:12.900Z,28
2017-12-22T07:26:53.383Z,32
2017-12-22T07:27:33.937Z,32
2017-12-22T07:28:14.460Z,28
2017-12-22T07:28:55.027Z,36
2017-12-22T07:29:35.542Z,36
2017-12-22T07:30:16.130Z,36
2017-12-22T07:30:56.703Z,40
2017-12-22T07:31:37.247Z,40
2017-12-22T07:32:17.764Z,40
2017-12-22T07:32:58.294Z,44
2017-12-22T07:33:38.821Z,44
2017-12-22T07:34:19.400Z,48
2017-12-22T07:34:59.908Z,48
2017-12-22T07:35:40.439Z,52
2017-12-22T07:36:20.955Z,52
2017-12-22T07:37:01.500Z,52
2017-12-22T07:37:42.096Z,56
2017-12-22T07:38:22.625Z,56
2017-12-22T07:39:03.111Z,56
2017-12-22T07:39:43.664Z,56
2017-12-22T07:40:24.174Z,56
2017-12-22T07:41:04.695Z,56
2017-12-22T07:41:45.284Z,56
2017-12-22T07:42:25.809Z,52
2017-12-22T07:43:06.372Z,56
2017-12-22T07:43:46.908Z,60
2017-12-22T07:44:27.442Z,60
2017-12-22T07:45:07.966Z,60
2017-12-22T07:45:48.540Z,68
2017-12-22T07:46:29.150Z,64
2017-12-22T07:47:09.690Z,64
2017-12-22T07:47:50.170Z,68
2017-12-22T07:48:30.708Z,76
2017-12-22T07:49:11.266Z,80
2017-12-22T07:49:51.862Z,76
2017-12-22T07:50:32.354Z,84
2017-12-22T07:51:12.925Z,92
2017-12-22T07:51:53.463Z,96
2017-12-22T07:52:34.046Z,100
2017-12-22T07:53:14.561Z,112
2017-12-22T07:53:55.147Z,112
2017-12-22T07:54:35.698Z,120
2017-12-22T07:55:16.259Z,120
2017-12-22T07:55:56.752Z,128
2017-12-22T07:56:37.269Z,116
2017-12-22T07:57:17.809Z,116
2017-12-22T07:57:58.381Z,124
2017-12-22T07:58:38.929Z,136
2017-12-22T07:59:19.500Z,140
2017-12-22T08:00:00.055Z,132
2017-12-22T08:00:40.638Z,128
2017-12-22T08:01:21.191Z,132
2017-12-22T08:02:01.734Z,132
2017-12-22T08:02:42.336Z,136
2017-12-22T08:03:23.396Z,128
2017-12-22T08:04:04.125Z,132
2017-12-22T08:04:44.689Z,128
2017-12-22T08:05:25.239Z,132
2017-12-22T08:06:05.764Z,140
2017-12-22T08:06:46.492Z,136
2017-12-22T08:07:27.044Z,132
2017-12-22T08:08:07.596Z,148
2017-12-22T08:08:48.087Z,140
2017-12-22T08:09:28.675Z,120
2017-12-22T08:10:09.211Z,132
2017-12-22T08:10:49.725Z,128
2017-12-22T08:11:30.309Z,124
2017-12-22T08:12:10.855Z,136
2017-12-22T08:12:51.355Z,148
2017-12-22T08:13:31.963Z,124
2017-12-22T08:14:12.505Z,124
2017-12-22T08:14:52.983Z,140
2017-12-22T08:15:33.539Z,132
2017-12-22T08:16:14.109Z,132
2017-12-22T08:16:54.591Z,132
2017-12-22T08:17:35.154Z,132
2017-12-22T08:18:15.674Z,144
2017-12-22T08:18:56.244Z,136
2017-12-22T08:19:36.838Z,136
2017-12-22T08:20:17.302Z,148
2017-12-22T08:20:57.957Z,160
2017-12-22T08:21:38.349Z,152
2017-12-22T08:22:18.934Z,160
2017-12-22T08:22:59.966Z,180
2017-12-22T08:23:40.056Z,168
2017-12-22T08:24:20.618Z,184
2017-12-22T08:25:01.170Z,204
2017-12-22T08:25:41.699Z,208
2017-12-22T08:26:22.233Z,232
2017-12-22T08:27:02.801Z,272
2017-12-22T08:27:43.334Z,252
2017-12-22T08:28:23.875Z,272
2017-12-22T08:29:04.400Z,260
2017-12-22T08:29:44.989Z,252
2017-12-22T08:30:25.552Z,216
2017-12-22T08:31:06.088Z,220
2017-12-22T08:31:46.655Z,212
2017-12-22T08:32:27.162Z,208
2017-12-22T08:33:07.673Z,212
2017-12-22T08:33:48.214Z,204
2017-12-22T08:34:28.747Z,196
2017-12-22T08:35:09.370Z,208
2017-12-22T08:35:49.877Z,188
2017-12-22T08:36:30.421Z,180
2017-12-22T08:37:10.969Z,184
2017-12-22T08:37:51.473Z,168
2017-12-22T08:38:32.016Z,164
2017-12-22T08:39:12.568Z,164
2017-12-22T08:39:53.161Z,184
2017-12-22T08:40:33.682Z,192
2017-12-22T08:41:14.203Z,208
2017-12-22T08:41:54.729Z,204
2017-12-22T08:42:35.301Z,232
2017-12-22T08:43:15.867Z,244
2017-12-22T08:43:56.445Z,272
2017-12-22T08:44:37.164Z,260
2017-12-22T08:45:17.558Z,276
2017-12-22T08:45:58.150Z,308
2017-12-22T08:46:38.665Z,308
2017-12-22T08:47:19.229Z,316
2017-12-22T08:47:59.709Z,316
2017-12-22T08:48:40.266Z,308
2017-12-22T08:49:20.847Z,288
2017-12-22T08:50:01.407Z,264
2017-12-22T08:50:41.897Z,300
2017-12-22T08:51:22.468Z,316
2017-12-22T08:52:03.006Z,324
2017-12-22T08:52:43.542Z,352
2017-12-22T08:53:24.106Z,368
2017-12-22T08:54:04.648Z,396
2017-12-22T08:54:45.240Z,380
2017-12-22T08:55:25.713Z,380
2017-12-22T08:56:06.216Z,392
2017-12-22T08:56:46.783Z,408
2017-12-22T08:57:27.411Z,364
2017-12-22T08:58:08.432Z,380
2017-12-22T08:58:48.894Z,404
2017-12-22T08:59:29.371Z,412
2017-12-22T09:00:09.951Z,384
2017-12-22T09:00:50.462Z,424
2017-12-22T09:01:31.092Z,460
2017-12-22T09:02:11.583Z,480
2017-12-22T09:02:52.105Z,516
2017-12-22T09:03:32.674Z,580
2017-12-22T09:04:14.164Z,580
2017-12-22T09:04:54.690Z,568
2017-12-22T09:05:35.201Z,692
2017-12-22T09:06:15.775Z,644
2017-12-22T09:06:56.380Z,668
2017-12-22T09:07:36.915Z,616
2017-12-22T09:08:17.583Z,544
2017-12-22T09:08:58.217Z,604
2017-12-22T09:09:38.767Z,616
2017-12-22T09:10:19.259Z,680
2017-12-22T09:10:59.860Z,652
2017-12-22T09:11:40.977Z,728
2017-12-22T09:12:21.719Z,652
2017-12-22T09:13:02.465Z,636
2017-12-22T09:13:42.802Z,620
2017-12-22T09:14:23.976Z,652
2017-12-22T09:15:04.776Z,644
2017-12-22T09:15:45.517Z,652
2017-12-22T09:16:28.418Z,628
2017-12-22T09:17:09.228Z,588
2017-12-22T09:17:49.701Z,580
2017-12-22T09:18:30.564Z,584
2017-12-22T09:19:11.390Z,600
2017-12-22T09:19:52.005Z,604
2017-12-22T09:20:32.596Z,612
2017-12-22T09:21:13.245Z,604
2017-12-22T09:21:53.653Z,588
2017-12-22T09:22:34.259Z,568
2017-12-22T09:23:14.846Z,616
2017-12-22T09:23:55.670Z,560
2017-12-22T09:24:36.588Z,648
2017-12-22T09:25:16.939Z,648
2017-12-22T09:25:57.480Z,636
2017-12-22T09:26:38.022Z,588
2017-12-22T09:27:18.569Z,660
2017-12-22T09:27:59.107Z,712
2017-12-22T09:28:39.625Z,644
2017-12-22T09:29:20.178Z,740
2017-12-22T09:30:00.709Z,672
2017-12-22T09:30:41.229Z,648
2017-12-22T09:31:21.755Z,564
2017-12-22T09:32:02.285Z,504
2017-12-22T09:32:42.856Z,464
2017-12-22T09:33:23.377Z,460
2017-12-22T09:34:03.927Z,492
2017-12-22T09:34:44.493Z,496
2017-12-22T09:35:25.052Z,528
2017-12-22T09:36:05.654Z,456
2017-12-22T09:36:46.300Z,464
2017-12-22T09:37:26.832Z,536
2017-12-22T09:38:07.365Z,488
2017-12-22T09:38:47.910Z,496
2017-12-22T09:39:28.472Z,480
2017-12-22T09:40:08.943Z,452
2017-12-22T09:40:49.524Z,488
2017-12-22T09:41:30.045Z,548
2017-12-22T09:42:10.665Z,548
2017-12-22T09:42:51.155Z,556
2017-12-22T09:43:31.680Z,456
2017-12-22T09:44:12.359Z,452
2017-12-22T09:44:53.320Z,500
2017-12-22T09:45:33.606Z,484
2017-12-22T09:46:21.462Z,424
2017-12-22T09:47:01.396Z,436
2017-12-22T09:47:42.581Z,432
2017-12-22T09:48:23.028Z,452
2017-12-22T09:49:03.732Z,456
2017-12-22T09:49:44.358Z,460
2017-12-22T09:50:25.000Z,480